This is the latest recevied weather packets stored in our database for station/object N5COP-13. If no packets are shown the sender has not sent any weather packets the latest 1 day(s).
| Time | Temp. | Humidity | Pressure | Rain* | Wind** | Luminosity | Snow |
|---|---|---|---|---|---|---|---|
| 1836274790 | 21.11° C | 57% | 1018.7 hPa | 0 mm | 3.13 m/s, 190° | 0 W/m² | - |
| 1836274489 | 21.11° C | 57% | 1018.9 hPa | 0 mm | 3.13 m/s, 189° | 0 W/m² | - |
| 1836274342 | 21.11° C | 57% | 1018.9 hPa | 0 mm | 3.13 m/s, 180° | 0 W/m² | - |
| 1836274186 | 20.56° C | 57% | 1018.8 hPa | 0 mm | 2.68 m/s, 160° | 0 W/m² | - |
| 1836273880 | 20.56° C | 57% | 1018.7 hPa | 0 mm | 2.68 m/s, 189° | 0 W/m² | - |
| 1778051060 | 5.56° C | 77% | 1013.6 hPa | 0 mm | 3.58 m/s, 72° | 0 W/m² | - |
| 1778050759 | 5.56° C | 77% | 1014 hPa | 0 mm | 2.68 m/s, 58° | 0 W/m² | - |
| 1778050456 | 5.56° C | 76% | 1014 hPa | 0 mm | 2.68 m/s, 39° | 0 W/m² | - |
| 1778050152 | 6.11° C | 76% | 1014.2 hPa | 0 mm | 3.58 m/s, 26° | 0 W/m² | - |
| 1778049848 | 6.11° C | 76% | 1013.9 hPa | 0 mm | 2.68 m/s, 63° | 0 W/m² | - |
| 1778049545 | 6.11° C | 75% | 1013.6 hPa | 0 mm | 4.47 m/s, 63° | 0 W/m² | - |
| 1778049243 | 6.11° C | 75% | 1013.9 hPa | 0 mm | 4.47 m/s, 68° | 0 W/m² | - |
| 1778048940 | 6.11° C | 74% | 1013.9 hPa | 0 mm | 4.02 m/s, 33° | 0 W/m² | - |
| 1778048638 | 6.11° C | 74% | 1013.7 hPa | 0 mm | 5.36 m/s, 27° | 0 W/m² | - |
| 1778048334 | 6.67° C | 73% | 1013.6 hPa | 0 mm | 1.79 m/s, 26° | 0 W/m² | - |
| 1778048031 | 6.67° C | 73% | 1013.1 hPa | 0 mm | 1.79 m/s, 61° | 0 W/m² | - |
| 1778047729 | 6.67° C | 72% | 1013.2 hPa | 0 mm | 3.58 m/s, 86° | 0 W/m² | - |
| 1778047426 | 6.67° C | 72% | 1013.2 hPa | 0 mm | 3.58 m/s, 75° | 0 W/m² | - |
| 1778047123 | 6.67° C | 71% | 1012.8 hPa | 0 mm | 1.79 m/s, 73° | 0 W/m² | - |
| 1778046820 | 7.22° C | 70% | 1012.7 hPa | 0 mm | 4.47 m/s, 68° | 0 W/m² | - |
| 1778046517 | 7.22° C | 70% | 1012.7 hPa | 0 mm | 2.68 m/s, 66° | 0 W/m² | - |
| 1778046214 | 7.22° C | 69% | 1012.5 hPa | 0 mm | 4.47 m/s, 70° | 0 W/m² | - |
| 1778045910 | 7.22° C | 69% | 1012.4 hPa | 0 mm | 5.36 m/s, 82° | 0 W/m² | - |
| 1778045609 | 7.78° C | 68% | 1012.2 hPa | 0 mm | 5.81 m/s, 86° | 0 W/m² | - |
| 1778045307 | 7.78° C | 67% | 1011.8 hPa | 0 mm | 5.81 m/s, 87° | 0 W/m² | - |
* Rain latest hour (hover to see other rain measurements)
** Current wind speed in m/s (hover to see current wind gust speed)